SKW5762 KDEN-KSLC
Flight info
| Callsign | SKW5762 |
|---|---|
| Flight time | 1h 8m |
| Altitude | 32000 |
| Route | ZIMMR4 CHNGY EKR RACER JAZZZ1 |
| Aircraft | E75L/M-SDE3GILORVW/S |
Departure
| Time | 2026-05-04 03:32 |
|---|---|
| Airport | Denver International Airport (KDEN) |
Arrival
| Time | 2026-05-04 04:41 |
|---|---|
| Airport | Salt Lake City International Airport (KSLC) |
| Time | Latitude | Longitude | Altitude | Speed | Heading |
|---|---|---|---|---|---|
| 2026-05-04 03:18 | 39.85338 | -104.67709 | 5378 ft | 0 kts | 13° |
| 2026-05-04 03:24 | 39.85326 | -104.67713 | 5379 ft | 3 kts | 9° |
| 2026-05-04 03:25 | 39.85306 | -104.67715 | 5381 ft | 3 kts | 358° |
| 2026-05-04 03:25 | 39.85287 | -104.67710 | 5380 ft | 3 kts | 326° |
| 2026-05-04 03:25 | 39.85279 | -104.67695 | 5378 ft | 1 kts | 271° |
| 2026-05-04 03:25 | 39.85279 | -104.67687 | 5380 ft | 0 kts | 271° |
| 2026-05-04 03:28 | 39.85279 | -104.67706 | 5379 ft | 6 kts | 271° |
| 2026-05-04 03:28 | 39.85281 | -104.67801 | 5381 ft | 15 kts | 271° |
| 2026-05-04 03:28 | 39.85282 | -104.67962 | 5381 ft | 19 kts | 270° |
| 2026-05-04 03:28 | 39.85284 | -104.68130 | 5381 ft | 18 kts | 280° |
| 2026-05-04 03:29 | 39.85307 | -104.68223 | 5381 ft | 10 kts | 270° |
| 2026-05-04 03:29 | 39.85296 | -104.68286 | 5380 ft | 4 kts | 289° |
| 2026-05-04 03:29 | 39.85309 | -104.68379 | 5379 ft | 16 kts | 271° |
| 2026-05-04 03:29 | 39.85274 | -104.68512 | 5375 ft | 15 kts | 197° |
| 2026-05-04 03:30 | 39.85204 | -104.68592 | 5373 ft | 17 kts | 267° |
| 2026-05-04 03:30 | 39.85213 | -104.68770 | 5364 ft | 17 kts | 279° |
| 2026-05-04 03:30 | 39.85198 | -104.68940 | 5356 ft | 27 kts | 267° |
| 2026-05-04 03:30 | 39.85198 | -104.69243 | 5344 ft | 37 kts | 271° |
| 2026-05-04 03:31 | 39.85205 | -104.69582 | 5334 ft | 33 kts | 278° |
| 2026-05-04 03:31 | 39.85276 | -104.69657 | 5336 ft | 2 kts | 357° |
| 2026-05-04 03:31 | 39.85462 | -104.69657 | 5333 ft | 61 kts | 360° |
| 2026-05-04 03:31 | 39.86116 | -104.69650 | 5333 ft | 127 kts | 0° |
| 2026-05-04 03:32 | 39.87188 | -104.69640 | 5473 ft | 172 kts | 359° |
| 2026-05-04 03:32 | 39.88451 | -104.69619 | 6174 ft | 188 kts | 356° |
| 2026-05-04 03:32 | 39.89773 | -104.69601 | 6796 ft | 195 kts | 357° |
| 2026-05-04 03:32 | 39.91144 | -104.69655 | 7497 ft | 200 kts | 348° |
| 2026-05-04 03:33 | 39.92431 | -104.70256 | 8174 ft | 201 kts | 327° |
| 2026-05-04 03:33 | 39.93507 | -104.71440 | 8802 ft | 205 kts | 308° |
| 2026-05-04 03:33 | 39.94239 | -104.73040 | 9452 ft | 209 kts | 291° |
| 2026-05-04 03:33 | 39.94569 | -104.74938 | 10027 ft | 224 kts | 274° |
| 2026-05-04 03:34 | 39.94531 | -104.77077 | 10131 ft | 252 kts | 267° |
| 2026-05-04 03:34 | 39.94328 | -104.79414 | 10138 ft | 264 kts | 264° |
| 2026-05-04 03:34 | 39.94081 | -104.81764 | 10118 ft | 257 kts | 264° |
| 2026-05-04 03:34 | 39.93832 | -104.84045 | 9960 ft | 255 kts | 263° |
| 2026-05-04 03:35 | 39.93579 | -104.86368 | 10003 ft | 264 kts | 264° |
| 2026-05-04 03:35 | 39.93338 | -104.88743 | 10261 ft | 272 kts | 264° |
| 2026-05-04 03:35 | 39.93105 | -104.91217 | 11178 ft | 277 kts | 268° |
| 2026-05-04 03:35 | 39.93135 | -104.93737 | 12089 ft | 282 kts | 275° |
| 2026-05-04 03:36 | 39.93272 | -104.96307 | 13075 ft | 287 kts | 275° |
| 2026-05-04 03:36 | 39.93378 | -104.98934 | 13976 ft | 294 kts | 274° |
| 2026-05-04 03:36 | 39.93460 | -105.01625 | 15000 ft | 298 kts | 274° |
| 2026-05-04 03:36 | 39.93530 | -105.04335 | 16062 ft | 301 kts | 274° |
| 2026-05-04 03:37 | 39.93595 | -105.07064 | 17030 ft | 303 kts | 274° |
| 2026-05-04 03:37 | 39.93660 | -105.09819 | 17919 ft | 306 kts | 273° |
| 2026-05-04 03:37 | 39.93722 | -105.12604 | 18743 ft | 309 kts | 273° |
| 2026-05-04 03:37 | 39.93784 | -105.15383 | 19526 ft | 312 kts | 273° |
| 2026-05-04 03:38 | 39.93845 | -105.18217 | 20351 ft | 314 kts | 272° |
| 2026-05-04 03:38 | 39.93909 | -105.21077 | 21129 ft | 317 kts | 272° |
| 2026-05-04 03:38 | 39.93993 | -105.23959 | 21843 ft | 320 kts | 275° |
| 2026-05-04 03:38 | 39.94226 | -105.26854 | 22510 ft | 323 kts | 277° |
| 2026-05-04 03:39 | 39.94489 | -105.29779 | 23049 ft | 329 kts | 277° |
| 2026-05-04 03:39 | 39.94732 | -105.32751 | 23699 ft | 330 kts | 276° |
| 2026-05-04 03:39 | 39.94979 | -105.35741 | 24257 ft | 334 kts | 276° |
| 2026-05-04 03:39 | 39.95222 | -105.38752 | 24893 ft | 336 kts | 276° |
| 2026-05-04 03:40 | 39.95466 | -105.41816 | 25192 ft | 348 kts | 276° |
| 2026-05-04 03:40 | 39.95720 | -105.45026 | 25372 ft | 363 kts | 276° |
| 2026-05-04 03:40 | 39.95980 | -105.48324 | 25842 ft | 368 kts | 276° |
| 2026-05-04 03:40 | 39.96236 | -105.51604 | 26442 ft | 369 kts | 276° |
| 2026-05-04 03:41 | 39.96496 | -105.54936 | 27004 ft | 371 kts | 276° |
| 2026-05-04 03:41 | 39.96755 | -105.58300 | 27515 ft | 374 kts | 275° |
| 2026-05-04 03:41 | 39.97012 | -105.61681 | 28035 ft | 376 kts | 275° |
| 2026-05-04 03:41 | 39.97271 | -105.65078 | 28493 ft | 379 kts | 275° |
| 2026-05-04 03:42 | 39.97514 | -105.68527 | 28882 ft | 384 kts | 274° |
| 2026-05-04 03:42 | 39.97680 | -105.72008 | 29351 ft | 386 kts | 273° |
| 2026-05-04 03:42 | 39.97846 | -105.75515 | 29817 ft | 389 kts | 273° |
| 2026-05-04 03:42 | 39.98015 | -105.79050 | 30258 ft | 392 kts | 273° |
| 2026-05-04 03:43 | 39.98188 | -105.82603 | 30631 ft | 394 kts | 273° |
| 2026-05-04 03:43 | 39.98364 | -105.86174 | 31009 ft | 396 kts | 273° |
| 2026-05-04 03:43 | 39.98538 | -105.89711 | 31379 ft | 397 kts | 273° |
| 2026-05-04 03:43 | 39.98714 | -105.93315 | 31731 ft | 399 kts | 273° |
| 2026-05-04 03:44 | 39.98891 | -105.96927 | 32062 ft | 401 kts | 273° |
| 2026-05-04 03:44 | 39.99249 | -106.04346 | 32045 ft | 418 kts | 273° |
| 2026-05-04 03:45 | 39.99612 | -106.11979 | 31932 ft | 423 kts | 273° |
| 2026-05-04 03:45 | 39.99974 | -106.19644 | 31937 ft | 425 kts | 273° |
| 2026-05-04 03:46 | 40.00332 | -106.27330 | 31939 ft | 425 kts | 273° |
| 2026-05-04 03:46 | 40.00682 | -106.34982 | 31924 ft | 425 kts | 273° |
| 2026-05-04 03:47 | 40.01028 | -106.42666 | 31913 ft | 425 kts | 273° |
| 2026-05-04 03:47 | 40.01368 | -106.50367 | 31915 ft | 426 kts | 273° |
| 2026-05-04 03:48 | 40.01703 | -106.58064 | 31916 ft | 425 kts | 273° |
| 2026-05-04 03:48 | 40.02034 | -106.65765 | 31922 ft | 425 kts | 273° |
| 2026-05-04 03:49 | 40.02358 | -106.73400 | 31931 ft | 423 kts | 273° |
| 2026-05-04 03:49 | 40.02678 | -106.81072 | 31935 ft | 423 kts | 272° |
| 2026-05-04 03:50 | 40.02992 | -106.88745 | 31938 ft | 424 kts | 272° |
| 2026-05-04 03:50 | 40.03302 | -106.96421 | 31952 ft | 424 kts | 272° |
| 2026-05-04 03:51 | 40.03604 | -107.04039 | 31952 ft | 423 kts | 272° |
| 2026-05-04 03:51 | 40.03904 | -107.11713 | 31958 ft | 423 kts | 272° |
| 2026-05-04 03:52 | 40.04198 | -107.19385 | 31955 ft | 423 kts | 272° |
| 2026-05-04 03:52 | 40.04488 | -107.27067 | 31944 ft | 426 kts | 272° |
| 2026-05-04 03:53 | 40.04772 | -107.34736 | 31942 ft | 426 kts | 272° |
| 2026-05-04 03:53 | 40.05053 | -107.42461 | 31962 ft | 426 kts | 272° |
| 2026-05-04 03:54 | 40.05329 | -107.50191 | 31942 ft | 426 kts | 272° |
| 2026-05-04 03:54 | 40.05600 | -107.57916 | 31932 ft | 426 kts | 272° |
| 2026-05-04 03:55 | 40.05865 | -107.65646 | 31918 ft | 426 kts | 272° |
| 2026-05-04 03:55 | 40.06124 | -107.73322 | 31913 ft | 426 kts | 272° |
| 2026-05-04 03:56 | 40.06381 | -107.81042 | 31897 ft | 425 kts | 271° |
| 2026-05-04 03:56 | 40.06508 | -107.84902 | 32028 ft | 425 kts | 271° |
| 2026-05-04 03:56 | 40.06633 | -107.88761 | 32025 ft | 426 kts | 271° |
| 2026-05-04 03:57 | 40.06909 | -107.96467 | 32039 ft | 425 kts | 272° |
| 2026-05-04 03:57 | 40.07272 | -108.04130 | 32008 ft | 426 kts | 272° |
| 2026-05-04 03:58 | 40.07800 | -108.15694 | 31958 ft | 426 kts | 272° |
| 2026-05-04 03:58 | 40.08144 | -108.23404 | 31861 ft | 425 kts | 272° |
| 2026-05-04 03:59 | 40.08481 | -108.31109 | 31859 ft | 425 kts | 272° |
| 2026-05-04 03:59 | 40.08812 | -108.38791 | 31860 ft | 428 kts | 272° |
| 2026-05-04 04:00 | 40.09140 | -108.46535 | 31857 ft | 428 kts | 272° |
| 2026-05-04 04:00 | 40.09465 | -108.54304 | 31852 ft | 428 kts | 272° |
| 2026-05-04 04:01 | 40.09783 | -108.62071 | 31836 ft | 428 kts | 272° |
| 2026-05-04 04:01 | 40.10094 | -108.69784 | 31832 ft | 428 kts | 272° |
| 2026-05-04 04:02 | 40.10402 | -108.77551 | 31831 ft | 428 kts | 272° |
| 2026-05-04 04:02 | 40.10707 | -108.85353 | 31821 ft | 431 kts | 272° |
| 2026-05-04 04:03 | 40.11005 | -108.93173 | 31812 ft | 431 kts | 272° |
| 2026-05-04 04:03 | 40.11296 | -109.00942 | 31811 ft | 431 kts | 271° |
| 2026-05-04 04:04 | 40.11584 | -109.08768 | 31811 ft | 431 kts | 271° |
| 2026-05-04 04:04 | 40.11867 | -109.16578 | 31799 ft | 430 kts | 271° |
| 2026-05-04 04:05 | 40.12143 | -109.24379 | 31798 ft | 430 kts | 271° |
| 2026-05-04 04:05 | 40.12412 | -109.32125 | 31803 ft | 430 kts | 271° |
| 2026-05-04 04:06 | 40.12679 | -109.39938 | 31822 ft | 433 kts | 271° |
| 2026-05-04 04:06 | 40.12942 | -109.47809 | 31824 ft | 431 kts | 271° |
| 2026-05-04 04:07 | 40.13197 | -109.55603 | 31828 ft | 429 kts | 271° |
| 2026-05-04 04:07 | 40.13445 | -109.63344 | 31821 ft | 430 kts | 271° |
| 2026-05-04 04:08 | 40.13691 | -109.71147 | 31793 ft | 430 kts | 271° |
| 2026-05-04 04:08 | 40.13931 | -109.78944 | 31797 ft | 429 kts | 270° |
| 2026-05-04 04:09 | 40.14165 | -109.86726 | 31794 ft | 428 kts | 270° |
| 2026-05-04 04:09 | 40.14393 | -109.94448 | 31798 ft | 428 kts | 270° |
| 2026-05-04 04:10 | 40.14616 | -110.02223 | 31795 ft | 428 kts | 270° |
| 2026-05-04 04:10 | 40.14834 | -110.09999 | 31809 ft | 428 kts | 270° |
| 2026-05-04 04:11 | 40.14917 | -110.17778 | 31821 ft | 429 kts | 266° |
| 2026-05-04 04:11 | 40.14827 | -110.25576 | 31821 ft | 429 kts | 266° |
| 2026-05-04 04:12 | 40.14751 | -110.33314 | 31819 ft | 429 kts | 266° |
| 2026-05-04 04:12 | 40.14714 | -110.37192 | 31580 ft | 422 kts | 266° |
| 2026-05-04 04:12 | 40.14679 | -110.40954 | 31310 ft | 405 kts | 266° |
| 2026-05-04 04:13 | 40.14644 | -110.44590 | 30761 ft | 397 kts | 266° |
| 2026-05-04 04:13 | 40.14608 | -110.48168 | 30256 ft | 390 kts | 266° |
| 2026-05-04 04:13 | 40.14572 | -110.51695 | 29681 ft | 387 kts | 266° |
| 2026-05-04 04:13 | 40.14534 | -110.55189 | 29219 ft | 383 kts | 266° |
| 2026-05-04 04:14 | 40.14464 | -110.61414 | 28318 ft | 389 kts | 266° |
| 2026-05-04 04:14 | 40.14423 | -110.64964 | 27786 ft | 392 kts | 266° |
| 2026-05-04 04:14 | 40.14382 | -110.68524 | 27269 ft | 392 kts | 267° |
| 2026-05-04 04:15 | 40.14341 | -110.72030 | 26755 ft | 390 kts | 267° |
| 2026-05-04 04:15 | 40.14297 | -110.75556 | 26255 ft | 387 kts | 267° |
| 2026-05-04 04:15 | 40.14253 | -110.79062 | 25737 ft | 384 kts | 267° |
| 2026-05-04 04:15 | 40.14209 | -110.82537 | 25229 ft | 382 kts | 267° |
| 2026-05-04 04:16 | 40.14164 | -110.86003 | 24726 ft | 381 kts | 267° |
| 2026-05-04 04:16 | 40.14119 | -110.89455 | 24218 ft | 379 kts | 267° |
| 2026-05-04 04:16 | 40.14072 | -110.92886 | 23722 ft | 377 kts | 268° |
| 2026-05-04 04:16 | 40.14024 | -110.96300 | 23184 ft | 375 kts | 268° |
| 2026-05-04 04:17 | 40.13976 | -110.99689 | 22727 ft | 371 kts | 268° |
| 2026-05-04 04:17 | 40.13928 | -111.03006 | 22239 ft | 370 kts | 268° |
| 2026-05-04 04:17 | 40.13879 | -111.06358 | 21750 ft | 368 kts | 268° |
| 2026-05-04 04:17 | 40.13829 | -111.09690 | 21262 ft | 366 kts | 268° |
| 2026-05-04 04:18 | 40.13778 | -111.13007 | 20779 ft | 364 kts | 268° |
| 2026-05-04 04:18 | 40.13726 | -111.16311 | 20279 ft | 363 kts | 268° |
| 2026-05-04 04:18 | 40.13673 | -111.19601 | 19805 ft | 362 kts | 268° |
| 2026-05-04 04:18 | 40.13620 | -111.22880 | 19303 ft | 360 kts | 268° |
| 2026-05-04 04:19 | 40.13564 | -111.26146 | 18809 ft | 358 kts | 268° |
| 2026-05-04 04:19 | 40.13509 | -111.29385 | 18337 ft | 356 kts | 268° |
| 2026-05-04 04:19 | 40.13452 | -111.32606 | 17884 ft | 353 kts | 268° |
| 2026-05-04 04:19 | 40.13398 | -111.35791 | 17508 ft | 351 kts | 268° |
| 2026-05-04 04:20 | 40.13341 | -111.38944 | 17052 ft | 351 kts | 268° |
| 2026-05-04 04:20 | 40.13282 | -111.42135 | 16565 ft | 351 kts | 268° |
| 2026-05-04 04:20 | 40.13223 | -111.45310 | 16110 ft | 349 kts | 268° |
| 2026-05-04 04:20 | 40.13164 | -111.48461 | 15645 ft | 344 kts | 268° |
| 2026-05-04 04:21 | 40.13106 | -111.51560 | 15211 ft | 337 kts | 268° |
| 2026-05-04 04:21 | 40.13143 | -111.54551 | 14994 ft | 323 kts | 278° |
| 2026-05-04 04:21 | 40.13825 | -111.57275 | 15026 ft | 311 kts | 293° |
| 2026-05-04 04:21 | 40.14701 | -111.59837 | 15025 ft | 309 kts | 294° |
| 2026-05-04 04:22 | 40.15576 | -111.62415 | 15034 ft | 312 kts | 294° |
| 2026-05-04 04:22 | 40.16459 | -111.65018 | 15013 ft | 314 kts | 294° |
| 2026-05-04 04:22 | 40.17667 | -111.67399 | 14806 ft | 316 kts | 316° |
| 2026-05-04 04:22 | 40.19314 | -111.69240 | 14729 ft | 323 kts | 321° |
| 2026-05-04 04:23 | 40.21085 | -111.71133 | 14569 ft | 332 kts | 321° |
| 2026-05-04 04:23 | 40.22883 | -111.73062 | 14320 ft | 336 kts | 321° |
| 2026-05-04 04:23 | 40.24688 | -111.75008 | 14049 ft | 336 kts | 321° |
| 2026-05-04 04:23 | 40.26483 | -111.76954 | 13798 ft | 335 kts | 321° |
| 2026-05-04 04:24 | 40.28274 | -111.78899 | 13542 ft | 334 kts | 321° |
| 2026-05-04 04:24 | 40.30049 | -111.80839 | 13282 ft | 331 kts | 320° |
| 2026-05-04 04:24 | 40.31850 | -111.82761 | 13025 ft | 335 kts | 321° |
| 2026-05-04 04:24 | 40.33666 | -111.84671 | 12770 ft | 335 kts | 320° |
| 2026-05-04 04:25 | 40.35483 | -111.86575 | 12506 ft | 333 kts | 321° |
| 2026-05-04 04:25 | 40.37265 | -111.88443 | 12244 ft | 332 kts | 320° |
| 2026-05-04 04:25 | 40.39064 | -111.90333 | 11987 ft | 331 kts | 321° |
| 2026-05-04 04:25 | 40.40863 | -111.92218 | 11750 ft | 330 kts | 320° |
| 2026-05-04 04:26 | 40.42648 | -111.94095 | 11509 ft | 328 kts | 321° |
| 2026-05-04 04:26 | 40.44432 | -111.95970 | 11275 ft | 328 kts | 321° |
| 2026-05-04 04:26 | 40.46212 | -111.97838 | 11042 ft | 327 kts | 321° |
| 2026-05-04 04:26 | 40.47983 | -111.99701 | 10818 ft | 324 kts | 321° |
| 2026-05-04 04:27 | 40.49719 | -112.01521 | 11047 ft | 324 kts | 321° |
| 2026-05-04 04:27 | 40.51489 | -112.03371 | 11054 ft | 325 kts | 321° |
| 2026-05-04 04:27 | 40.53230 | -112.05198 | 11063 ft | 326 kts | 321° |
| 2026-05-04 04:27 | 40.55053 | -112.06964 | 11060 ft | 327 kts | 331° |
| 2026-05-04 04:28 | 40.57201 | -112.07883 | 11053 ft | 326 kts | 349° |
| 2026-05-04 04:28 | 40.59447 | -112.08350 | 11067 ft | 327 kts | 351° |
| 2026-05-04 04:28 | 40.61696 | -112.08811 | 11060 ft | 327 kts | 351° |
| 2026-05-04 04:28 | 40.63945 | -112.09273 | 11035 ft | 327 kts | 351° |
| 2026-05-04 04:29 | 40.66187 | -112.09714 | 11035 ft | 326 kts | 353° |
| 2026-05-04 04:29 | 40.68452 | -112.09961 | 11024 ft | 327 kts | 356° |
| 2026-05-04 04:29 | 40.70719 | -112.10167 | 11016 ft | 327 kts | 356° |
| 2026-05-04 04:29 | 40.72985 | -112.10373 | 11006 ft | 326 kts | 356° |
| 2026-05-04 04:30 | 40.75217 | -112.10575 | 10992 ft | 326 kts | 356° |
| 2026-05-04 04:30 | 40.77441 | -112.10777 | 10773 ft | 314 kts | 356° |
| 2026-05-04 04:30 | 40.79612 | -112.10972 | 10582 ft | 313 kts | 356° |
| 2026-05-04 04:30 | 40.81784 | -112.11168 | 10388 ft | 310 kts | 356° |
| 2026-05-04 04:31 | 40.83893 | -112.11360 | 10187 ft | 298 kts | 356° |
| 2026-05-04 04:31 | 40.85930 | -112.11538 | 9983 ft | 288 kts | 356° |
| 2026-05-04 04:31 | 40.87899 | -112.11671 | 9772 ft | 279 kts | 356° |
| 2026-05-04 04:31 | 40.89809 | -112.11800 | 9572 ft | 273 kts | 356° |
| 2026-05-04 04:32 | 40.91674 | -112.11928 | 9367 ft | 272 kts | 356° |
| 2026-05-04 04:32 | 40.93558 | -112.12063 | 9156 ft | 271 kts | 356° |
| 2026-05-04 04:32 | 40.95433 | -112.12195 | 8948 ft | 270 kts | 355° |
| 2026-05-04 04:32 | 40.97303 | -112.12335 | 8765 ft | 269 kts | 356° |
| 2026-05-04 04:33 | 40.99168 | -112.12478 | 8583 ft | 268 kts | 355° |
| 2026-05-04 04:33 | 41.01028 | -112.12628 | 8391 ft | 268 kts | 356° |
| 2026-05-04 04:33 | 41.02885 | -112.12780 | 8170 ft | 268 kts | 356° |
| 2026-05-04 04:33 | 41.04739 | -112.12940 | 7927 ft | 267 kts | 356° |
| 2026-05-04 04:34 | 41.06586 | -112.13015 | 7680 ft | 265 kts | 7° |
| 2026-05-04 04:34 | 41.08252 | -112.12162 | 7465 ft | 261 kts | 39° |
| 2026-05-04 04:34 | 41.09286 | -112.10303 | 7549 ft | 247 kts | 71° |
| 2026-05-04 04:34 | 41.09609 | -112.08136 | 7600 ft | 235 kts | 82° |
| 2026-05-04 04:35 | 41.09816 | -112.05982 | 7635 ft | 237 kts | 91° |
| 2026-05-04 04:35 | 41.09341 | -112.03908 | 7642 ft | 238 kts | 124° |
| 2026-05-04 04:35 | 41.08132 | -112.02428 | 7688 ft | 239 kts | 145° |
| 2026-05-04 04:35 | 41.06718 | -112.01248 | 7579 ft | 242 kts | 148° |
| 2026-05-04 04:36 | 41.05174 | -112.00455 | 7506 ft | 236 kts | 172° |
| 2026-05-04 04:36 | 41.03526 | -112.00389 | 7525 ft | 239 kts | 179° |
| 2026-05-04 04:36 | 41.01893 | -112.00231 | 7515 ft | 238 kts | 172° |
| 2026-05-04 04:36 | 41.00245 | -111.99944 | 7504 ft | 239 kts | 174° |
| 2026-05-04 04:37 | 40.95276 | -111.99392 | 7016 ft | 240 kts | 174° |
| 2026-05-04 04:37 | 40.93623 | -111.99193 | 6725 ft | 238 kts | 174° |
| 2026-05-04 04:38 | 40.91975 | -111.99002 | 6479 ft | 238 kts | 174° |
| 2026-05-04 04:38 | 40.90356 | -111.98814 | 6235 ft | 231 kts | 174° |
| 2026-05-04 04:38 | 40.88798 | -111.98631 | 5930 ft | 217 kts | 175° |
| 2026-05-04 04:38 | 40.87391 | -111.98469 | 5649 ft | 188 kts | 174° |
| 2026-05-04 04:39 | 40.86188 | -111.98333 | 5359 ft | 162 kts | 173° |
| 2026-05-04 04:39 | 40.85094 | -111.98205 | 5154 ft | 154 kts | 174° |
| 2026-05-04 04:39 | 40.84033 | -111.98078 | 4945 ft | 152 kts | 174° |
| 2026-05-04 04:39 | 40.82990 | -111.97956 | 4736 ft | 147 kts | 172° |
| 2026-05-04 04:40 | 40.81965 | -111.97824 | 4554 ft | 150 kts | 173° |
| 2026-05-04 04:40 | 40.80947 | -111.97714 | 4354 ft | 146 kts | 173° |
| 2026-05-04 04:40 | 40.79986 | -111.97611 | 4246 ft | 126 kts | 173° |
| 2026-05-04 04:40 | 40.79225 | -111.97517 | 4229 ft | 89 kts | 175° |
| 2026-05-04 04:41 | 40.78764 | -111.97463 | 4231 ft | 35 kts | 176° |
| 2026-05-04 04:41 | 40.78566 | -111.97531 | 4227 ft | 17 kts | 203° |
| 2026-05-04 04:41 | 40.78487 | -111.97548 | 4226 ft | 4 kts | 192° |
| 2026-05-04 04:41 | 40.78470 | -111.97560 | 4228 ft | 0 kts | 222° |
| 2026-05-04 04:42 | 40.78464 | -111.97571 | 4227 ft | 4 kts | 241° |
| 2026-05-04 04:42 | 40.78468 | -111.97622 | 4225 ft | 6 kts | 304° |
| 2026-05-04 04:42 | 40.78495 | -111.97649 | 4225 ft | 2 kts | 345° |
| 2026-05-04 04:42 | 40.78511 | -111.97652 | 4226 ft | 5 kts | 353° |
| 2026-05-04 04:43 | 40.78602 | -111.97663 | 4230 ft | 18 kts | 353° |
| 2026-05-04 04:43 | 40.78733 | -111.97678 | 4230 ft | 21 kts | 354° |
| 2026-05-04 04:43 | 40.78827 | -111.97732 | 4231 ft | 11 kts | 281° |
| 2026-05-04 04:43 | 40.78820 | -111.97872 | 4232 ft | 20 kts | 259° |
| 2026-05-04 04:44 | 40.78802 | -111.98068 | 4230 ft | 23 kts | 265° |
| 2026-05-04 04:44 | 40.78789 | -111.98283 | 4229 ft | 24 kts | 265° |
| 2026-05-04 04:44 | 40.78773 | -111.98495 | 4231 ft | 24 kts | 264° |
| 2026-05-04 04:44 | 40.78777 | -111.98595 | 4228 ft | 4 kts | 299° |
| 2026-05-04 04:45 | 40.78786 | -111.98604 | 4229 ft | 2 kts | 352° |
| 2026-05-04 04:45 | 40.78806 | -111.98606 | 4228 ft | 4 kts | 355° |
| 2026-05-04 04:45 | 40.78835 | -111.98610 | 4229 ft | 2 kts | 355° |
| 2026-05-04 04:47 | 40.78841 | -111.98610 | 4229 ft | 0 kts | 354° |